.
WxDataArchive / Data Records for 2007-08-29
2007-08-28 August 2007 2007-08-30

Data Records for Wednesday, 29 August 2007

Time	Temp	Chill	HIndex	Humid	Dewpt	 Wind 	HiWind	WindDir	Rain 	Barom 
-----	----	-----	------	-----	-----	------	------	-------	-----	----- 
00:00	69.8	69.8	69.8	94	68.0	0	0	---	0.00	29.970 
00:05	69.6	69.6	69.6	94	67.8	0	0	---	0.00	29.974 
00:10	69.4	69.4	69.4	94	67.6	0	0	---	0.00	29.975 
00:15	69.4	69.4	69.4	94	67.6	0	0	---	0.00	29.977 
00:20	69.3	69.3	69.3	95	67.8	0	0	---	0.00	29.977 
00:25	69.3	69.3	69.3	95	67.8	0	0	---	0.00	29.976 
00:30	69.1	69.1	69.1	95	67.6	0	0	---	0.00	29.973 
00:35	69.1	69.1	69.1	95	67.6	0	0	---	0.00	29.972 
00:40	68.9	68.9	68.9	95	67.4	0	0	---	0.00	29.970 
00:45	68.9	68.9	68.9	95	67.4	0	0	---	0.00	29.967 
00:50	68.8	68.8	68.8	95	67.3	0	0	---	0.00	29.967 
00:55	68.8	68.8	68.8	95	67.3	0	0	---	0.00	29.968 
01:00	68.8	68.8	68.8	95	67.3	0	0	---	0.00	29.965 
01:05	68.6	68.6	68.6	95	67.1	0	0	---	0.00	29.964 
01:10	68.6	68.6	68.6	95	67.1	0	0	---	0.00	29.964 
01:15	68.4	68.4	68.4	95	66.9	0	0	---	0.00	29.965 
01:20	68.4	68.4	68.4	95	66.9	0	0	---	0.00	29.965 
01:25	68.3	68.3	68.3	96	67.1	0	0	---	0.00	29.965 
01:30	68.1	68.1	68.1	96	66.9	0	0	---	0.00	29.964 
01:35	68.1	68.1	68.1	96	66.9	0	0	---	0.00	29.964 
01:40	68.1	68.1	68.1	96	66.9	0	0	---	0.00	29.963 
01:45	68.1	68.1	68.1	96	66.9	0	0	---	0.00	29.962 
01:50	68.1	68.1	68.1	96	66.9	0	0	---	0.00	29.958 
01:55	68.1	68.1	68.1	96	66.9	0	0	---	0.00	29.955 
02:00	67.9	67.9	67.9	96	66.7	0	0	---	0.00	29.949 
02:05	67.9	67.9	67.9	96	66.7	0	0	---	0.00	29.949 
02:10	67.8	67.8	67.8	96	66.6	0	0	---	0.00	29.951 
02:15	67.8	67.8	67.8	96	66.6	0	0	---	0.00	29.948 
02:20	67.8	67.8	67.8	96	66.6	0	0	---	0.00	29.948 
02:25	67.8	67.8	67.8	96	66.6	0	0	---	0.00	29.949 
02:30	67.8	67.8	67.8	96	66.6	0	0	---	0.00	29.946 
02:35	67.6	67.6	67.6	96	66.4	0	0	---	0.00	29.947 
02:40	67.6	67.6	67.6	96	66.4	0	0	---	0.00	29.947 
02:45	67.6	67.6	67.6	96	66.4	0	0	---	0.00	29.947 
02:50	67.4	67.4	67.4	96	66.2	0	0	---	0.00	29.948 
02:55	67.4	67.4	67.4	96	66.2	0	0	---	0.00	29.948 
03:00	67.3	67.3	67.3	96	66.1	0	0	---	0.00	29.947 
03:05	67.3	67.3	67.3	96	66.1	0	0	---	0.00	29.947 
03:10	67.3	67.3	67.3	96	66.1	0	0	---	0.00	29.947 
03:15	67.3	67.3	67.3	96	66.1	0	0	---	0.00	29.947 
03:20	67.1	67.1	67.1	96	65.9	0	0	---	0.00	29.948 
03:25	66.9	66.9	66.9	96	65.7	0	0	---	0.00	29.949 
03:30	66.9	66.9	66.9	96	65.7	0	0	---	0.00	29.949 
03:35	66.8	66.8	66.8	96	65.6	0	0	---	0.00	29.950 
03:40	66.6	66.6	66.6	96	65.4	0	0	---	0.00	29.950 
03:45	66.4	66.4	66.4	96	65.2	0	0	---	0.00	29.949 
03:50	66.4	66.4	66.4	97	65.5	0	0	---	0.00	29.949 
03:55	66.4	66.4	66.4	97	65.5	0	0	---	0.00	29.949 
04:00	66.4	66.4	66.4	96	65.2	0	0	---	0.00	29.949 
04:05	66.3	66.3	66.3	96	65.1	0	0	---	0.00	29.950 
04:10	66.3	66.3	66.3	97	65.4	0	0	---	0.00	29.951 
04:15	66.1	66.1	66.1	96	64.9	0	0	---	0.00	29.951 
04:20	66.1	66.1	66.1	96	64.9	0	0	---	0.00	29.949 
04:25	66.0	66.0	66.0	96	64.8	0	0	---	0.00	29.948 
04:30	65.8	65.8	65.8	96	64.6	0	0	---	0.00	29.949 
04:35	65.6	65.6	65.6	97	64.7	0	0	---	0.00	29.950 
04:40	65.6	65.6	65.6	97	64.7	0	0	---	0.00	29.950 
04:45	65.8	65.8	65.8	97	64.9	0	0	---	0.00	29.951 
04:50	65.6	65.6	65.6	97	64.7	0	0	---	0.00	29.951 
04:55	65.6	65.6	65.6	97	64.7	0	0	---	0.00	29.951 
05:00	65.5	65.5	65.5	97	64.6	0	0	---	0.00	29.951 
05:05	65.3	65.3	65.3	97	64.4	0	0	---	0.00	29.953 
05:10	65.2	65.2	65.2	97	64.3	0	0	---	0.00	29.955 
05:15	65.2	65.2	65.2	97	64.3	0	0	---	0.00	29.956 
05:20	65.0	65.0	65.0	97	64.1	0	0	---	0.00	29.959 
05:25	65.0	65.0	65.0	97	64.1	0	0	---	0.00	29.962 
05:30	65.0	65.0	65.0	97	64.1	0	0	---	0.00	29.966 
05:35	64.8	64.8	64.8	97	63.9	0	0	---	0.00	29.967 
05:40	64.8	64.8	64.8	97	63.9	0	0	---	0.00	29.968 
05:45	64.8	64.8	64.8	97	63.9	0	0	---	0.00	29.969 
05:50	64.8	64.8	64.8	97	63.9	0	0	---	0.00	29.970 
05:55	64.8	64.8	64.8	97	63.9	0	0	---	0.00	29.971 
06:00	64.7	64.7	64.7	97	63.8	0	0	---	0.00	29.971 
06:05	64.7	64.7	64.7	97	63.8	0	0	---	0.00	29.977 
06:10	64.7	64.7	64.7	97	63.8	0	0	---	0.00	29.979 
06:15	64.8	64.8	64.8	97	63.9	0	0	---	0.00	29.982 
06:20	64.8	64.8	64.8	97	63.9	0	0	---	0.00	29.982 
06:25	65.0	65.0	65.0	97	64.1	0	0	---	0.00	29.979 
06:30	65.0	65.0	65.0	97	64.1	0	0	---	0.00	29.978 
06:35	65.2	65.2	65.2	97	64.3	0	0	---	0.00	29.977 
06:40	65.2	65.2	65.2	97	64.3	0	0	---	0.00	29.979 
06:45	65.3	65.3	65.3	97	64.4	0	0	---	0.00	29.977 
06:50	65.6	65.6	65.6	97	64.7	0	0	---	0.00	29.977 
06:55	66.0	66.0	66.0	97	65.1	0	0	---	0.00	29.978 
07:00	66.3	66.3	66.3	97	65.4	0	0	---	0.00	29.980 
07:05	66.8	66.8	66.8	98	66.2	0	0	---	0.00	29.985 
07:10	67.1	67.1	67.1	98	66.5	0	0	---	0.00	29.985 
07:15	67.4	67.4	67.4	97	66.5	0	1	202	0.00	29.985 
07:20	67.9	67.9	67.9	97	67.0	0	0	---	0.00	29.985 
07:25	68.4	68.4	68.4	97	67.5	0	0	---	0.00	29.984 
07:30	68.8	68.8	68.8	97	67.9	0	0	---	0.00	29.980 
07:35	69.3	69.3	69.3	96	68.1	0	1	202	0.00	29.980 
07:40	69.9	69.9	69.9	94	68.1	0	0	---	0.00	29.980 
07:45	70.8	70.8	70.8	91	68.0	0	1	202	0.00	29.977 
07:50	71.5	71.5	71.5	87	67.4	0	1	202	0.00	29.980 
07:55	72.3	72.3	72.3	83	66.8	0	1	202	0.00	29.977 
08:00	73.2	73.2	73.2	81	67.0	0	1	202	0.00	29.974 
08:05	73.7	73.7	73.7	78	66.4	0	1	202	0.00	29.976 
08:10	74.4	74.4	74.4	78	67.1	0	1	202	0.00	29.975 
08:15	74.9	74.9	74.9	75	66.4	0	1	202	0.00	29.975 
08:20	75.6	75.6	77.0	73	66.3	0	1	202	0.00	29.973 
08:25	76.3	76.3	77.8	73	67.0	0	1	202	0.00	29.971 
08:30	76.7	76.7	78.4	71	66.6	0	1	202	0.00	29.969 
08:35	77.2	77.2	79.0	70	66.6	0	1	202	0.00	29.969 
08:40	77.7	77.7	79.6	70	67.1	0	1	202	0.00	29.966 
08:45	78.3	78.3	80.4	69	67.3	0	0	---	0.00	29.967 
08:50	78.8	78.8	80.9	66	66.5	0	0	---	0.00	29.967 
08:55	79.4	79.4	81.6	65	66.6	0	1	202	0.00	29.967 
09:00	79.8	79.8	81.9	63	66.1	0	1	202	0.00	29.969 
09:05	80.1	80.1	82.4	64	66.8	0	1	202	0.00	29.973 
09:10	80.5	80.5	83.5	68	68.9	0	2	202	0.00	29.973 
09:15	81.1	81.1	83.5	62	66.8	0	1	202	0.00	29.971 
09:20	81.6	81.6	83.9	60	66.3	0	2	202	0.00	29.970 
09:25	82.4	82.4	85.4	62	68.0	0	1	202	0.00	29.967 
09:30	82.8	82.8	85.2	58	66.5	1	2	202	0.00	29.968 
09:35	83.0	83.0	85.1	56	65.7	0	1	202	0.00	29.970 
09:40	83.4	83.4	85.8	57	66.5	1	2	202	0.00	29.974 
09:45	83.8	83.8	86.0	55	65.9	1	2	202	0.00	29.972 
09:50	84.1	84.1	86.7	56	66.7	1	2	202	0.00	29.973 
09:55	84.5	84.5	87.3	56	67.0	0	2	225	0.00	29.971 
10:00	85.1	85.1	88.2	56	67.6	0	1	225	0.00	29.967 
10:05	85.7	85.7	88.6	54	67.1	0	1	225	0.00	29.968 
10:10	85.9	85.9	88.3	52	66.2	1	3	225	0.00	29.966 
10:15	86.3	86.3	88.6	51	66.0	1	2	248	0.00	29.969 
10:20	86.7	86.7	89.6	52	66.9	0	2	248	0.00	29.969 
10:25	87.4	87.4	90.7	52	67.6	0	1	248	0.00	29.969 
10:30	87.8	87.8	90.7	50	66.8	0	2	248	0.00	29.970 
10:35	88.0	88.0	92.2	53	68.7	1	2	248	0.00	29.972 
10:40	88.0	88.0	90.7	49	66.4	1	2	248	0.00	29.972 
10:45	88.0	88.0	92.6	54	69.2	0	1	292	0.00	29.970 
10:50	88.2	88.2	91.4	50	67.2	1	2	270	0.00	29.971 
10:55	88.4	88.4	91.3	49	66.8	1	2	270	0.00	29.972 
11:00	88.8	88.8	92.0	49	67.1	1	2	270	0.00	29.965 
11:05	89.5	89.5	93.2	49	67.8	0	2	270	0.00	29.971 
11:10	89.9	89.9	94.4	50	68.7	1	2	270	0.00	29.969 
11:15	90.3	90.3	94.3	48	67.9	0	3	45	0.00	29.969 
11:20	90.5	90.5	92.9	44	65.6	1	3	270	0.00	29.968 
11:25	90.7	90.7	93.7	45	66.4	0	2	248	0.00	29.966 
11:30	90.7	90.7	94.1	46	67.0	0	1	248	0.00	29.967 
11:35	90.7	90.7	93.3	44	65.7	1	3	112	0.00	29.966 
11:40	90.7	90.7	93.3	44	65.7	1	3	112	0.00	29.967 
11:45	90.7	90.7	92.9	43	65.1	1	3	248	0.00	29.969 
11:50	90.7	90.7	92.5	42	64.4	1	3	248	0.00	29.970 
11:55	90.7	90.7	92.5	42	64.4	1	3	248	0.00	29.970 
12:00	91.0	91.0	92.6	41	64.0	1	2	292	0.00	29.967 
12:05	91.4	91.4	95.4	46	67.7	0	2	270	0.00	29.966 
12:10	91.6	91.6	92.7	39	63.1	1	2	270	0.00	29.966 
12:15	91.6	91.6	93.5	41	64.5	1	3	270	0.00	29.964 
12:20	91.8	91.8	92.3	37	61.8	1	4	270	0.00	29.963 
12:25	92.1	92.1	93.1	38	62.8	1	2	270	0.00	29.962 
12:30	92.5	92.5	93.8	38	63.1	1	3	248	0.00	29.960 
12:35	92.1	92.1	93.5	39	63.5	1	2	270	0.00	29.962 
12:40	91.6	91.6	93.1	40	63.8	1	3	270	0.00	29.960 
12:45	91.8	91.8	92.3	37	61.8	1	3	270	0.00	29.961 
12:50	92.1	92.1	93.9	40	64.3	1	3	270	0.00	29.959 
12:55	92.3	92.3	93.4	38	63.0	1	2	270	0.00	29.958 
13:00	92.5	92.5	94.2	39	63.9	1	2	270	0.00	29.958 
13:05	92.5	92.5	93.4	37	62.4	1	3	270	0.00	29.956 
13:10	92.7	92.7	93.7	37	62.6	1	3	315	0.00	29.956 
13:15	92.9	92.9	94.0	37	62.7	1	3	270	0.00	29.955 
13:20	93.2	93.2	95.3	39	64.5	0	2	270	0.00	29.955 
13:25	93.2	93.2	94.9	38	63.8	1	3	270	0.00	29.954 
13:30	92.7	92.7	92.9	35	61.0	1	3	270	0.00	29.951 
13:35	92.7	92.7	94.1	38	63.3	1	2	270	0.00	29.951 
13:40	92.9	92.9	94.8	39	64.2	1	4	270	0.00	29.949 
13:45	92.5	92.5	93.0	36	61.6	1	3	270	0.00	29.947 
13:50	92.5	92.5	93.4	37	62.4	1	3	270	0.00	29.947 
13:55	92.9	92.9	93.2	35	61.2	1	4	270	0.00	29.947 
14:00	93.2	93.2	94.1	36	62.2	1	2	270	0.00	29.946 
14:05	93.4	93.4	95.2	38	63.9	1	2	270	0.00	29.945 
14:10	93.4	93.4	93.6	34	60.8	1	4	270	0.00	29.944 
14:15	93.6	93.6	93.9	34	61.0	1	4	270	0.00	29.942 
14:20	93.6	93.6	93.5	33	60.1	2	5	270	0.00	29.940 
14:25	93.4	93.4	92.8	32	59.1	2	4	270	0.00	29.933 
14:30	93.4	93.4	94.0	35	61.6	1	4	270	0.00	29.930 
14:35	93.4	93.4	93.2	33	59.9	1	3	270	0.00	29.929 
14:40	93.6	93.6	93.1	32	59.2	1	4	270	0.00	29.927 
14:45	93.6	93.6	93.9	34	61.0	1	3	270	0.00	29.921 
14:50	93.6	93.6	95.5	38	64.1	1	3	22	0.00	29.918 
14:55	93.8	93.8	95.9	38	64.3	1	3	292	0.00	29.917 
15:00	93.4	93.4	93.6	34	60.8	2	4	248	0.00	29.916 
15:05	92.7	92.7	92.2	33	59.3	2	5	270	0.00	29.917 
15:10	92.9	92.9	92.1	32	58.6	1	3	270	0.00	29.917 
15:15	92.9	92.9	92.8	34	60.3	1	3	270	0.00	29.916 
15:20	93.2	93.2	93.3	34	60.6	1	3	270	0.00	29.917 
15:25	93.2	93.2	92.9	33	59.8	1	4	270	0.00	29.917 
15:30	92.9	92.9	94.4	38	63.5	1	3	270	0.00	29.919 
15:35	92.9	92.9	93.2	35	61.2	1	2	270	0.00	29.920 
15:40	92.9	92.9	94.4	38	63.5	1	2	270	0.00	29.921 
15:45	92.7	92.7	94.5	39	64.1	0	1	270	0.00	29.917 
15:50	92.5	92.5	94.2	39	63.9	0	2	270	0.00	29.916 
15:55	92.5	92.5	94.2	39	63.9	0	1	270	0.00	29.915 
16:00	92.3	92.3	93.4	38	63.0	1	2	270	0.00	29.915 
16:05	92.1	92.1	93.1	38	62.8	1	2	270	0.00	29.914 
16:10	92.1	92.1	93.1	38	62.8	1	3	270	0.00	29.913 
16:15	92.1	92.1	93.9	40	64.3	1	2	270	0.00	29.912 
16:20	91.8	91.8	93.1	39	63.3	1	3	248	0.00	29.909 
16:25	91.6	91.6	92.7	39	63.1	1	4	248	0.00	29.907 
16:30	91.2	91.2	92.1	39	62.7	1	2	248	0.00	29.905 
16:35	90.7	90.7	92.5	42	64.4	0	1	248	0.00	29.905 
16:40	90.5	90.5	92.5	43	64.9	0	1	248	0.00	29.902 
16:45	91.0	91.0	94.2	45	66.7	0	2	248	0.00	29.901 
16:50	91.2	91.2	95.0	46	67.5	0	1	248	0.00	29.901 
16:55	91.4	91.4	94.9	45	67.0	1	3	248	0.00	29.901 
17:00	91.0	91.0	93.8	44	66.0	1	4	270	0.00	29.901 
17:05	90.7	90.7	94.5	47	67.7	0	2	338	0.00	29.900 
17:10	90.5	90.5	92.2	42	64.2	1	3	270	0.00	29.900 
17:15	90.3	90.3	91.1	40	62.7	1	2	270	0.00	29.904 
17:20	90.1	90.1	92.7	45	65.9	0	1	270	0.00	29.903 
17:25	89.9	89.9	92.3	45	65.7	1	2	270	0.00	29.903 
17:30	89.5	89.5	92.4	47	66.6	0	2	270	0.00	29.905 
17:35	89.3	89.3	92.9	49	67.6	0	2	270	0.00	29.906 
17:40	89.3	89.3	92.9	49	67.6	1	2	292	0.00	29.908 
17:45	89.0	89.0	92.4	49	67.3	0	2	315	0.00	29.906 
17:50	88.8	88.8	92.8	51	68.3	0	1	315	0.00	29.904 
17:55	88.6	88.6	92.5	51	68.1	0	1	315	0.00	29.904 
18:00	88.4	88.4	92.5	52	68.5	0	1	315	0.00	29.905 
18:05	88.2	88.2	92.5	53	68.9	0	1	315	0.00	29.904 
18:10	88.0	88.0	92.6	54	69.2	0	1	315	0.00	29.902 
18:15	87.8	87.8	92.6	55	69.6	0	0	---	0.00	29.902 
18:20	87.6	87.6	92.2	55	69.4	0	1	315	0.00	29.904 
18:25	87.4	87.4	92.2	56	69.7	0	1	315	0.00	29.908 
18:30	87.0	87.0	92.7	59	70.9	0	1	315	0.00	29.911 
18:35	86.3	86.3	92.1	61	71.2	0	1	315	0.00	29.913 
18:40	85.7	85.7	91.6	63	71.6	0	1	315	0.00	29.911 
18:45	85.3	85.3	91.2	64	71.7	0	0	---	0.00	29.915 
18:50	84.9	84.9	90.7	65	71.8	0	0	---	0.00	29.915 
18:55	84.3	84.3	90.1	67	72.1	0	0	---	0.00	29.918 
19:00	84.0	84.0	89.5	67	71.8	0	1	315	0.00	29.920 
19:05	83.6	83.6	89.0	68	71.9	0	2	315	0.00	29.919 
19:10	83.4	83.4	88.9	69	72.1	0	1	315	0.00	29.918 
19:15	83.0	83.0	87.9	68	71.3	0	3	315	0.00	29.918 
19:20	82.6	82.6	87.3	69	71.4	0	2	315	0.00	29.924 
19:25	82.2	82.2	86.6	69	71.0	0	3	292	0.00	29.930 
19:30	81.8	81.8	85.9	69	70.6	0	1	292	0.00	29.931 
19:35	81.6	81.6	85.5	69	70.4	0	1	292	0.00	29.933 
19:40	81.1	81.1	84.6	69	69.9	0	1	292	0.00	29.934 
19:45	80.7	80.7	84.3	71	70.4	0	1	292	0.00	29.936 
19:50	80.3	80.3	83.6	71	70.0	0	1	292	0.00	29.940 
19:55	80.1	80.1	83.2	71	69.8	0	3	315	0.00	29.947 
20:00	79.8	79.8	82.9	72	69.9	0	1	315	0.00	29.950 
20:05	79.4	79.4	82.3	73	70.0	0	1	315	0.00	29.945 
20:10	79.2	79.2	82.1	74	70.2	0	1	315	0.00	29.949 
20:15	78.8	78.8	81.4	74	69.8	0	0	---	0.00	29.949 
20:20	78.6	78.6	81.1	75	70.0	0	0	---	0.00	29.952 
20:25	78.3	78.3	80.7	76	70.1	0	0	---	0.00	29.958 
20:30	78.3	78.3	80.7	77	70.5	0	1	315	0.00	29.960 
20:35	78.1	78.1	80.4	78	70.7	0	1	315	0.00	29.958 
20:40	77.9	77.9	80.1	78	70.5	0	1	315	0.00	29.960 
20:45	77.7	77.7	79.8	79	70.7	0	1	315	0.00	29.961 
20:50	77.7	77.7	79.8	80	71.0	0	1	315	0.00	29.962 
20:55	77.6	77.6	79.6	80	70.9	0	2	315	0.00	29.966 
21:00	77.4	77.4	79.2	81	71.1	0	1	315	0.00	29.969 
21:05	77.2	77.2	78.9	81	70.9	0	1	315	0.00	29.967 
21:10	77.0	77.0	78.5	81	70.7	0	1	315	0.00	29.969 
21:15	76.8	76.8	78.2	81	70.5	0	2	315	0.00	29.967 
21:20	76.8	76.8	78.2	80	70.1	0	2	315	0.00	29.967 
21:25	76.8	76.8	78.2	80	70.1	0	1	315	0.00	29.967 
21:30	76.7	76.7	78.2	78	69.3	0	1	315	0.00	29.966 
21:35	76.7	76.7	78.2	78	69.3	0	1	315	0.00	29.967 
21:40	76.5	76.5	77.9	78	69.1	0	1	315	0.00	29.962 
21:45	76.3	76.3	77.6	77	68.5	0	1	315	0.00	29.964 
21:50	76.0	76.0	77.2	77	68.3	0	1	315	0.00	29.964 
21:55	75.8	75.8	77.0	77	68.1	0	1	315	0.00	29.965 
22:00	75.8	75.8	77.0	77	68.1	0	1	315	0.00	29.966 
22:05	75.6	75.6	76.8	76	67.5	0	1	315	0.00	29.966 
22:10	75.4	75.4	76.6	75	66.9	0	1	315	0.00	29.969 
22:15	75.4	75.4	76.6	75	66.9	0	1	315	0.00	29.968 
22:20	75.3	75.3	76.5	75	66.8	0	1	315	0.00	29.967 
22:25	75.1	75.1	76.2	76	67.0	0	1	315	0.00	29.968 
22:30	74.9	74.9	74.9	76	66.8	0	1	315	0.00	29.966 
22:35	74.7	74.7	74.7	76	66.6	0	2	315	0.00	29.963 
22:40	74.6	74.6	74.6	77	66.9	0	1	315	0.00	29.964 
22:45	74.4	74.4	74.4	77	66.7	0	1	315	0.00	29.969 
22:50	74.2	74.2	74.2	77	66.5	0	1	315	0.00	29.966 
22:55	74.0	74.0	74.0	78	66.7	0	1	315	0.00	29.968 
23:00	73.9	73.9	73.9	78	66.6	0	1	315	0.00	29.969 
23:05	73.7	73.7	73.7	78	66.4	0	1	315	0.00	29.966 
23:10	73.5	73.5	73.5	79	66.6	0	1	315	0.00	29.965 
23:15	73.3	73.3	73.3	79	66.4	0	1	315	0.00	29.961 
23:20	73.2	73.2	73.2	80	66.6	0	1	315	0.00	29.962 
23:25	73.2	73.2	73.2	80	66.6	0	3	292	0.00	29.965 
23:30	73.0	73.0	73.0	80	66.5	0	1	292	0.00	29.966 
23:35	72.8	72.8	72.8	81	66.6	0	1	292	0.00	29.971 
23:40	72.7	72.7	72.7	81	66.5	0	0	---	0.00	29.970 
23:45	72.7	72.7	72.7	81	66.5	0	1	292	0.00	29.971 
23:50	72.5	72.5	72.5	81	66.3	0	1	292	0.00	29.973 
23:55	72.5	72.5	72.5	82	66.7	0	1	292	0.00	29.973 

CoCoRaHS
IN-AL-39
A2 Web Hosting
Creative Commons License
GoDaddy
Look for:

loaded 2017-10-17 00:11:51 • last modified 2010-11-18 10:43:29
Privacy PolicyDisclaimer
• wx.awcolley.com is powered by PmWiki v.2002016 •
• all content (unless otherwise noted) © 2017 A W Colley